sensor_id;sensor_type;location;lat;lon;timestamp;pressure;altitude;pressure_sealevel;temperature;humidity
39209;BME280;24929;51.982;4.664;2023-04-12T04:45:12;76104.28;;;-143.36;75.49
39209;BME280;24929;51.982;4.664;2023-04-12T04:47:39;76082.22;;;-143.36;75.74
39209;BME280;24929;51.982;4.664;2023-04-12T04:50:05;76084.22;;;-143.36;75.51
39209;BME280;24929;51.982;4.664;2023-04-12T04:52:31;76102.28;;;-143.36;75.92
39209;BME280;24929;51.982;4.664;2023-04-12T04:54:56;76084.22;;;-143.36;75.69
39209;BME280;24929;51.982;4.664;2023-04-12T04:57:23;76096.25;;;-143.36;76.17
39209;BME280;24929;51.982;4.664;2023-04-12T04:59:48;76094.25;;;-143.36;76.04
39209;BME280;24929;51.982;4.664;2023-04-12T05:02:14;76074.19;;;-143.36;75.73
39209;BME280;24929;51.982;4.664;2023-04-12T05:04:40;76068.19;;;-143.36;75.17
39209;BME280;24929;51.982;4.664;2023-04-12T05:07:06;76060.16;;;-143.36;74.96
39209;BME280;24929;51.982;4.664;2023-04-12T05:09:31;76058.13;;;-143.36;75.13
39209;BME280;24929;51.982;4.664;2023-04-12T05:11:56;76056.13;;;-143.36;74.90
39209;BME280;24929;51.982;4.664;2023-04-12T05:14:22;76068.19;;;-143.36;74.34
39209;BME280;24929;51.982;4.664;2023-04-12T05:16:47;76066.16;;;-143.36;74.80
39209;BME280;24929;51.982;4.664;2023-04-12T05:19:12;76054.13;;;-143.36;74.50
39209;BME280;24929;51.982;4.664;2023-04-12T05:21:38;76060.16;;;-143.36;74.80
39209;BME280;24929;51.982;4.664;2023-04-12T05:24:03;76068.19;;;-143.36;75.38
39209;BME280;24929;51.982;4.664;2023-04-12T05:26:29;76064.16;;;-143.36;74.97
39209;BME280;24929;51.982;4.664;2023-04-12T05:28:54;76036.06;;;-143.36;75.12
39209;BME280;24929;51.982;4.664;2023-04-12T05:31:20;76020.03;;;-143.36;74.56
39209;BME280;24929;51.982;4.664;2023-04-12T05:33:47;76032.06;;;-143.36;74.93
39209;BME280;24929;51.982;4.664;2023-04-12T05:36:13;76014.00;;;-143.36;74.39
39209;BME280;24929;51.982;4.664;2023-04-12T05:38:38;75997.94;;;-143.36;74.16
39209;BME280;24929;51.982;4.664;2023-04-12T05:41:04;75997.94;;;-143.36;73.82
39209;BME280;24929;51.982;4.664;2023-04-12T05:43:30;75995.94;;;-143.36;73.71
39209;BME280;24929;51.982;4.664;2023-04-12T05:45:55;75993.94;;;-143.36;73.51
39209;BME280;24929;51.982;4.664;2023-04-12T05:48:21;76003.97;;;-143.36;73.85
39209;BME280;24929;51.982;4.664;2023-04-12T05:50:50;75955.81;;;-143.36;73.53
39209;BME280;24929;51.982;4.664;2023-04-12T05:53:16;75975.88;;;-143.36;73.20
39209;BME280;24929;51.982;4.664;2023-04-12T05:55:41;75973.88;;;-143.36;73.27
39209;BME280;24929;51.982;4.664;2023-04-12T05:58:07;75951.78;;;-143.36;72.70
39209;BME280;24929;51.982;4.664;2023-04-12T06:00:32;75971.88;;;-143.36;72.54
39209;BME280;24929;51.982;4.664;2023-04-12T06:02:57;75963.84;;;-143.36;72.41
39209;BME280;24929;51.982;4.664;2023-04-12T06:05:23;75981.91;;;-143.36;72.39
39209;BME280;24929;51.982;4.664;2023-04-12T06:07:48;75989.91;;;-143.36;72.98
39209;BME280;24929;51.982;4.664;2023-04-12T06:10:15;75965.84;;;-143.36;73.13
39209;BME280;24929;51.982;4.664;2023-04-12T06:12:41;75977.88;;;-143.36;72.96
39209;BME280;24929;51.982;4.664;2023-04-12T06:15:06;75955.81;;;-143.36;72.34
39209;BME280;24929;51.982;4.664;2023-04-12T06:17:32;75933.75;;;-143.36;72.15
39209;BME280;24929;51.982;4.664;2023-04-12T06:19:57;75941.75;;;-143.36;71.86
39209;BME280;24929;51.982;4.664;2023-04-12T06:22:22;75931.72;;;-143.36;71.68
39209;BME280;24929;51.982;4.664;2023-04-12T06:24:48;75927.72;;;-143.36;71.71
39209;BME280;24929;51.982;4.664;2023-04-12T06:27:13;75933.75;;;-143.36;71.28
39209;BME280;24929;51.982;4.664;2023-04-12T06:29:38;75945.78;;;-143.36;70.86
39209;BME280;24929;51.982;4.664;2023-04-12T06:32:04;75957.81;;;-143.36;70.89
39209;BME280;24929;51.982;4.664;2023-04-12T06:34:30;75965.84;;;-143.36;70.20
39209;BME280;24929;51.982;4.664;2023-04-12T06:36:55;75979.88;;;-143.36;70.47
39209;BME280;24929;51.982;4.664;2023-04-12T06:39:21;75977.88;;;-143.36;69.84
39209;BME280;24929;51.982;4.664;2023-04-12T06:41:47;75993.94;;;-143.36;69.77
39209;BME280;24929;51.982;4.664;2023-04-12T06:44:14;75993.94;;;-143.36;69.72
39209;BME280;24929;51.982;4.664;2023-04-12T06:46:39;75999.94;;;-143.36;69.68
39209;BME280;24929;51.982;4.664;2023-04-12T06:49:05;76007.97;;;-143.36;69.93
39209;BME280;24929;51.982;4.664;2023-04-12T06:51:30;75979.88;;;-143.36;69.40
39209;BME280;24929;51.982;4.664;2023-04-12T06:53:55;75971.88;;;-143.36;69.11
39209;BME280;24929;51.982;4.664;2023-04-12T06:56:22;75981.91;;;-143.36;69.38
39209;BME280;24929;51.982;4.664;2023-04-12T06:58:47;75969.84;;;-143.36;69.20
39209;BME280;24929;51.982;4.664;2023-04-12T07:01:12;75995.94;;;-143.36;68.49
39209;BME280;24929;51.982;4.664;2023-04-12T07:03:38;75981.91;;;-143.36;68.22
39209;BME280;24929;51.982;4.664;2023-04-12T07:06:04;75987.91;;;-143.36;67.48
39209;BME280;24929;51.982;4.664;2023-04-12T07:15:54;75893.63;;;-143.36;65.92
39209;BME280;24929;51.982;4.664;2023-04-12T07:18:20;75943.78;;;-143.36;66.05
39209;BME280;24929;51.982;4.664;2023-04-12T07:30:59;75887.59;;;-143.36;63.46
39209;BME280;24929;51.982;4.664;2023-04-12T07:33:25;75907.66;;;-143.36;63.50
39209;BME280;24929;51.982;4.664;2023-04-12T07:35:50;75917.69;;;-143.36;63.18
39209;BME280;24929;51.982;4.664;2023-04-12T07:38:15;75809.34;;;-143.36;63.92
39209;BME280;24929;51.982;4.664;2023-04-12T07:40:41;75654.84;;;-143.36;60.51
39209;BME280;24929;51.982;4.664;2023-04-12T07:43:06;75528.47;;;-143.36;56.76
39209;BME280;24929;51.982;4.664;2023-04-12T07:45:32;75448.22;;;-143.36;52.39
39209;BME280;24929;51.982;4.664;2023-04-12T07:47:57;75400.06;;;-143.36;50.77
39209;BME280;24929;51.982;4.664;2023-04-12T07:50:22;75319.81;;;-143.36;48.45
39209;BME280;24929;51.982;4.664;2023-04-12T07:52:48;75361.94;;;-143.36;44.15
39209;BME280;24929;51.982;4.664;2023-04-12T07:55:13;75428.16;;;-143.36;43.65
39209;BME280;24929;51.982;4.664;2023-04-12T07:57:38;75388.03;;;-143.36;44.32
39209;BME280;24929;51.982;4.664;2023-04-12T08:00:04;75390.03;;;-143.36;45.24
39209;BME280;24929;51.982;4.664;2023-04-12T08:02:30;75432.16;;;-143.36;45.02
39209;BME280;24929;51.982;4.664;2023-04-12T08:04:57;75424.13;;;-143.36;45.52
39209;BME280;24929;51.982;4.664;2023-04-12T08:07:22;75327.84;;;-143.36;45.82
39209;BME280;24929;51.982;4.664;2023-04-12T08:09:48;75245.59;;;-143.36;45.14
39209;BME280;24929;51.982;4.664;2023-04-12T08:12:13;75243.59;;;-143.36;44.26
39209;BME280;24929;51.982;4.664;2023-04-12T08:14:39;75323.84;;;-143.36;43.52
39209;BME280;24929;51.982;4.664;2023-04-12T08:17:05;75406.09;;;-143.36;43.75
39209;BME280;24929;51.982;4.664;2023-04-12T08:19:30;75480.31;;;-143.36;44.12
39209;BME280;24929;51.982;4.664;2023-04-12T08:21:56;75536.50;;;-143.36;46.88
39209;BME280;24929;51.982;4.664;2023-04-12T08:24:21;75596.69;;;-143.36;45.91
39209;BME280;24929;51.982;4.664;2023-04-12T08:26:47;75580.63;;;-143.36;46.77
39209;BME280;24929;51.982;4.664;2023-04-12T08:29:12;75564.56;;;-143.36;46.48
39209;BME280;24929;51.982;4.664;2023-04-12T08:31:38;75556.56;;;-143.36;46.34
39209;BME280;24929;51.982;4.664;2023-04-12T08:34:03;75546.53;;;-143.36;45.97
39209;BME280;24929;51.982;4.664;2023-04-12T08:36:29;75592.66;;;-143.36;45.88
39209;BME280;24929;51.982;4.664;2023-04-12T08:39:00;75572.59;;;-143.36;45.73
39209;BME280;24929;51.982;4.664;2023-04-12T08:41:27;75606.72;;;-143.36;46.26
39209;BME280;24929;51.982;4.664;2023-04-12T08:43:52;75616.75;;;-143.36;45.45
39209;BME280;24929;51.982;4.664;2023-04-12T08:46:20;75610.72;;;-143.36;45.63
39209;BME280;24929;51.982;4.664;2023-04-12T08:48:50;75562.56;;;-143.36;45.84
39209;BME280;24929;51.982;4.664;2023-04-12T08:51:19;75568.59;;;-143.36;45.98
39209;BME280;24929;51.982;4.664;2023-04-12T08:53:45;75558.56;;;-143.36;45.40
39209;BME280;24929;51.982;4.664;2023-04-12T08:56:12;75530.47;;;-143.36;44.28
39209;BME280;24929;51.982;4.664;2023-04-12T08:58:38;75526.47;;;-143.36;43.33
39209;BME280;24929;51.982;4.664;2023-04-12T09:01:10;75470.28;;;-143.36;44.11
39209;BME280;24929;51.982;4.664;2023-04-12T09:03:38;75406.09;;;-143.36;42.76
39209;BME280;24929;51.982;4.664;2023-04-12T09:06:03;75458.25;;;-143.36;42.68
39209;BME280;24929;51.982;4.664;2023-04-12T09:08:29;75468.28;;;-143.36;42.56
39209;BME280;24929;51.982;4.664;2023-04-12T09:10:54;75516.44;;;-143.36;42.62
39209;BME280;24929;51.982;4.664;2023-04-12T09:13:31;75462.25;;;-143.36;42.86
39209;BME280;24929;51.982;4.664;2023-04-12T09:15:57;75500.38;;;-143.36;42.79
39209;BME280;24929;51.982;4.664;2023-04-12T09:18:22;75480.31;;;-143.36;41.88
39209;BME280;24929;51.982;4.664;2023-04-12T09:20:48;75458.25;;;-143.36;43.05
39209;BME280;24929;51.982;4.664;2023-04-12T09:23:21;75438.19;;;-143.36;42.14
39209;BME280;24929;51.982;4.664;2023-04-12T09:25:48;75462.25;;;-143.36;42.19
39209;BME280;24929;51.982;4.664;2023-04-12T09:28:27;75404.09;;;-143.36;42.73
39209;BME280;24929;51.982;4.664;2023-04-12T09:30:55;75412.09;;;-143.36;42.72
39209;BME280;24929;51.982;4.664;2023-04-12T09:33:31;75329.84;;;-143.36;42.57
39209;BME280;24929;51.982;4.664;2023-04-12T09:36:00;75325.84;;;-143.36;41.12
39209;BME280;24929;51.982;4.664;2023-04-12T09:38:27;75408.09;;;-143.36;41.12
39209;BME280;24929;51.982;4.664;2023-04-12T09:40:52;75396.06;;;-143.36;40.08
39209;BME280;24929;51.982;4.664;2023-04-12T09:46:28;75446.22;;;-143.36;39.83
39209;BME280;24929;51.982;4.664;2023-04-12T09:48:55;75472.28;;;-143.36;38.87
39209;BME280;24929;51.982;4.664;2023-04-12T09:51:27;75476.31;;;-143.36;39.32
39209;BME280;24929;51.982;4.664;2023-04-12T09:54:01;75506.41;;;-143.36;39.16
39209;BME280;24929;51.982;4.664;2023-04-12T09:56:31;75532.47;;;-143.36;39.39
39209;BME280;24929;51.982;4.664;2023-04-12T09:59:08;75456.25;;;-143.36;40.86
39209;BME280;24929;51.982;4.664;2023-04-12T10:01:38;75430.16;;;-143.36;40.51
39209;BME280;24929;51.982;4.664;2023-04-12T10:04:07;75462.25;;;-143.36;39.63
39209;BME280;24929;51.982;4.664;2023-04-12T10:06:33;75530.47;;;-143.36;40.12
39209;BME280;24929;51.982;4.664;2023-04-12T10:08:59;75572.59;;;-143.36;40.40
39209;BME280;24929;51.982;4.664;2023-04-12T10:11:28;75624.75;;;-143.36;40.36
39209;BME280;24929;51.982;4.664;2023-04-12T10:13:55;75618.75;;;-143.36;40.26
39209;BME280;24929;51.982;4.664;2023-04-12T10:16:21;75652.84;;;-143.36;39.41
39209;BME280;24929;51.982;4.664;2023-04-12T10:18:47;75658.88;;;-143.36;40.34
39209;BME280;24929;51.982;4.664;2023-04-12T10:21:14;75586.66;;;-143.36;40.73
39209;BME280;24929;51.982;4.664;2023-04-12T10:23:43;75468.28;;;-143.36;40.47
39209;BME280;24929;51.982;4.664;2023-04-12T10:26:09;75476.31;;;-143.36;40.61
39209;BME280;24929;51.982;4.664;2023-04-12T10:28:35;75404.09;;;-143.36;40.04
39209;BME280;24929;51.982;4.664;2023-04-12T10:31:27;75329.84;;;-143.36;38.47
39209;BME280;24929;51.982;4.664;2023-04-12T10:33:53;75347.91;;;-143.36;39.55
39209;BME280;24929;51.982;4.664;2023-04-12T10:36:19;75363.97;;;-143.36;38.85
39209;BME280;24929;51.982;4.664;2023-04-12T10:38:46;75347.91;;;-143.36;36.47
39209;BME280;24929;51.982;4.664;2023-04-12T10:41:19;75337.88;;;-143.36;35.50
39209;BME280;24929;51.982;4.664;2023-04-12T10:43:51;75396.06;;;-143.36;35.90
39209;BME280;24929;51.982;4.664;2023-04-12T10:49:13;75400.06;;;-143.36;36.67
39209;BME280;24929;51.982;4.664;2023-04-12T10:52:23;75410.09;;;-143.36;36.98
39209;BME280;24929;51.982;4.664;2023-04-12T10:54:32;75418.13;;;-143.36;36.83
39209;BME280;24929;51.982;4.664;2023-04-12T10:57:00;75440.19;;;-143.36;36.75
39209;BME280;24929;51.982;4.664;2023-04-12T11:02:15;75394.06;;;-143.36;36.68
39209;BME280;24929;51.982;4.664;2023-04-12T11:05:09;75353.94;;;-143.36;35.57
39209;BME280;24929;51.982;4.664;2023-04-12T11:07:42;75414.09;;;-143.36;34.94
39209;BME280;24929;51.982;4.664;2023-04-12T11:10:14;75390.03;;;-143.36;34.20
39209;BME280;24929;51.982;4.664;2023-04-12T11:12:47;75376.00;;;-143.36;34.15
39209;BME280;24929;51.982;4.664;2023-04-12T11:15:13;75386.03;;;-143.36;33.50
39209;BME280;24929;51.982;4.664;2023-04-12T11:17:38;75398.06;;;-143.36;32.54
39209;BME280;24929;51.982;4.664;2023-04-12T11:20:09;75412.09;;;-143.36;32.60
39209;BME280;24929;51.982;4.664;2023-04-12T11:22:37;75454.22;;;-143.36;32.74
39209;BME280;24929;51.982;4.664;2023-04-12T11:25:02;75442.19;;;-143.36;34.00
39209;BME280;24929;51.982;4.664;2023-04-12T11:27:29;75472.28;;;-143.36;32.84
39209;BME280;24929;51.982;4.664;2023-04-12T11:29:57;75502.38;;;-143.36;32.29
39209;BME280;24929;51.982;4.664;2023-04-12T11:32:25;75498.38;;;-143.36;34.08
39209;BME280;24929;51.982;4.664;2023-04-12T11:34:52;75458.25;;;-143.36;32.96
39209;BME280;24929;51.982;4.664;2023-04-12T11:37:18;75492.34;;;-143.36;32.78
39209;BME280;24929;51.982;4.664;2023-04-12T11:39:45;75488.34;;;-143.36;34.43
39209;BME280;24929;51.982;4.664;2023-04-12T11:42:19;75404.09;;;-143.36;33.93
39209;BME280;24929;51.982;4.664;2023-04-12T11:44:45;75456.25;;;-143.36;34.69
39209;BME280;24929;51.982;4.664;2023-04-12T11:47:12;75474.28;;;-143.36;34.02
39209;BME280;24929;51.982;4.664;2023-04-12T11:49:46;75416.13;;;-143.36;33.82
39209;BME280;24929;51.982;4.664;2023-04-12T11:52:11;75357.94;;;-143.36;33.61
39209;BME280;24929;51.982;4.664;2023-04-12T11:54:41;75434.19;;;-143.36;31.97
39209;BME280;24929;51.982;4.664;2023-04-12T11:57:13;75458.25;;;-143.36;31.10
39209;BME280;24929;51.982;4.664;2023-04-12T11:59:39;75448.22;;;-143.36;33.14
39209;BME280;24929;51.982;4.664;2023-04-12T12:02:06;75476.31;;;-143.36;32.40
39209;BME280;24929;51.982;4.664;2023-04-12T12:04:33;75490.34;;;-143.36;32.85
39209;BME280;24929;51.982;4.664;2023-04-12T12:06:59;75474.28;;;-143.36;31.61
39209;BME280;24929;51.982;4.664;2023-04-12T12:09:25;75490.34;;;-143.36;31.90
39209;BME280;24929;51.982;4.664;2023-04-12T12:11:52;75476.31;;;-143.36;32.46
39209;BME280;24929;51.982;4.664;2023-04-12T12:14:19;75514.41;;;-143.36;32.58
39209;BME280;24929;51.982;4.664;2023-04-12T12:16:54;75508.41;;;-143.36;32.98
39209;BME280;24929;51.982;4.664;2023-04-12T12:19:35;75514.41;;;-143.36;33.45
39209;BME280;24929;51.982;4.664;2023-04-12T12:22:19;75502.38;;;-143.36;34.08
39209;BME280;24929;51.982;4.664;2023-04-12T12:24:59;75536.50;;;-143.36;33.90
39209;BME280;24929;51.982;4.664;2023-04-12T12:27:34;75634.78;;;-143.36;34.47
39209;BME280;24929;51.982;4.664;2023-04-12T12:30:01;75628.78;;;-143.36;37.43
39209;BME280;24929;51.982;4.664;2023-04-12T12:32:35;75644.81;;;-143.36;37.09
39209;BME280;24929;51.982;4.664;2023-04-12T12:35:02;75652.84;;;-143.36;37.90
39209;BME280;24929;51.982;4.664;2023-04-12T12:37:32;75580.63;;;-143.36;37.84
39209;BME280;24929;51.982;4.664;2023-04-12T12:40:11;75496.38;;;-143.36;37.78
39209;BME280;24929;51.982;4.664;2023-04-12T12:42:51;75526.47;;;-143.36;37.06
39209;BME280;24929;51.982;4.664;2023-04-12T12:45:20;75562.56;;;-143.36;37.12
39209;BME280;24929;51.982;4.664;2023-04-12T12:47:59;75518.44;;;-143.36;36.63
39209;BME280;24929;51.982;4.664;2023-04-12T12:50:27;75528.47;;;-143.36;37.12
39209;BME280;24929;51.982;4.664;2023-04-12T12:52:54;75486.34;;;-143.36;36.93
39209;BME280;24929;51.982;4.664;2023-04-12T12:55:22;75442.19;;;-143.36;36.41
39209;BME280;24929;51.982;4.664;2023-04-12T12:57:51;75386.03;;;-143.36;36.63
39209;BME280;24929;51.982;4.664;2023-04-12T13:00:18;75392.03;;;-143.36;36.26
39209;BME280;24929;51.982;4.664;2023-04-12T13:02:44;75384.03;;;-143.36;36.33
39209;BME280;24929;51.982;4.664;2023-04-12T13:05:10;75412.09;;;-143.36;36.19
39209;BME280;24929;51.982;4.664;2023-04-12T13:07:36;75432.16;;;-143.36;36.55
39209;BME280;24929;51.982;4.664;2023-04-12T13:10:02;75438.19;;;-143.36;37.62
39209;BME280;24929;51.982;4.664;2023-04-12T13:12:28;75418.13;;;-143.36;36.46
39209;BME280;24929;51.982;4.664;2023-04-12T13:14:54;75458.25;;;-143.36;36.14
39209;BME280;24929;51.982;4.664;2023-04-12T13:17:19;75456.25;;;-143.36;37.17
39209;BME280;24929;51.982;4.664;2023-04-12T13:19:45;75466.28;;;-143.36;36.79
39209;BME280;24929;51.982;4.664;2023-04-12T13:22:15;75478.31;;;-143.36;37.20
39209;BME280;24929;51.982;4.664;2023-04-12T13:24:41;75534.47;;;-143.36;37.64
39209;BME280;24929;51.982;4.664;2023-04-12T13:27:07;75554.53;;;-143.36;36.83
39209;BME280;24929;51.982;4.664;2023-04-12T13:29:33;75552.53;;;-143.36;37.78
39209;BME280;24929;51.982;4.664;2023-04-12T13:31:58;75592.66;;;-143.36;37.79
39209;BME280;24929;51.982;4.664;2023-04-12T13:34:24;75550.53;;;-143.36;37.55
39209;BME280;24929;51.982;4.664;2023-04-12T13:36:52;75518.44;;;-143.36;38.16
39209;BME280;24929;51.982;4.664;2023-04-12T13:39:17;75474.28;;;-143.36;37.22
39209;BME280;24929;51.982;4.664;2023-04-12T13:41:43;75504.38;;;-143.36;37.11
39209;BME280;24929;51.982;4.664;2023-04-12T13:44:08;75520.44;;;-143.36;37.04
39209;BME280;24929;51.982;4.664;2023-04-12T13:46:34;75530.47;;;-143.36;37.38
39209;BME280;24929;51.982;4.664;2023-04-12T13:48:59;75588.66;;;-143.36;37.49
39209;BME280;24929;51.982;4.664;2023-04-12T13:51:26;75612.72;;;-143.36;37.46
39209;BME280;24929;51.982;4.664;2023-04-12T13:53:53;75566.59;;;-143.36;37.88
39209;BME280;24929;51.982;4.664;2023-04-12T13:56:18;75564.56;;;-143.36;38.04
39209;BME280;24929;51.982;4.664;2023-04-12T13:58:45;75538.50;;;-143.36;38.55
39209;BME280;24929;51.982;4.664;2023-04-12T14:01:10;75488.34;;;-143.36;38.17
39209;BME280;24929;51.982;4.664;2023-04-12T14:03:37;75470.28;;;-143.36;37.58
39209;BME280;24929;51.982;4.664;2023-04-12T14:06:02;75478.31;;;-143.36;37.26
39209;BME280;24929;51.982;4.664;2023-04-12T14:08:28;75522.44;;;-143.36;37.82
39209;BME280;24929;51.982;4.664;2023-04-12T14:10:53;75564.56;;;-143.36;37.53
39209;BME280;24929;51.982;4.664;2023-04-12T14:13:23;75628.78;;;-143.36;37.34
39209;BME280;24929;51.982;4.664;2023-04-12T14:15:49;75584.63;;;-143.36;36.66
39209;BME280;24929;51.982;4.664;2023-04-12T14:18:16;75608.72;;;-143.36;35.46
39209;BME280;24929;51.982;4.664;2023-04-12T14:20:41;75588.66;;;-143.36;35.11
39209;BME280;24929;51.982;4.664;2023-04-12T14:23:07;75606.72;;;-143.36;35.58
39209;BME280;24929;51.982;4.664;2023-04-12T14:25:35;75642.81;;;-143.36;35.85
39209;BME280;24929;51.982;4.664;2023-04-12T14:28:01;75590.66;;;-143.36;36.23
39209;BME280;24929;51.982;4.664;2023-04-12T14:30:27;75534.47;;;-143.36;36.03
39209;BME280;24929;51.982;4.664;2023-04-12T14:32:52;75526.47;;;-143.36;35.23
39209;BME280;24929;51.982;4.664;2023-04-12T14:35:17;75504.38;;;-143.36;35.71
39209;BME280;24929;51.982;4.664;2023-04-12T14:37:43;75568.59;;;-143.36;35.74
39209;BME280;24929;51.982;4.664;2023-04-12T14:40:08;75556.56;;;-143.36;36.22
39209;BME280;24929;51.982;4.664;2023-04-12T14:42:34;75488.34;;;-143.36;36.28
39209;BME280;24929;51.982;4.664;2023-04-12T14:44:59;75450.22;;;-143.36;36.31
39209;BME280;24929;51.982;4.664;2023-04-12T14:47:25;75478.31;;;-143.36;35.67
39209;BME280;24929;51.982;4.664;2023-04-12T14:49:51;75458.25;;;-143.36;36.29
39209;BME280;24929;51.982;4.664;2023-04-12T14:52:16;75508.41;;;-143.36;36.53
39209;BME280;24929;51.982;4.664;2023-04-12T14:54:42;75512.41;;;-143.36;37.00
39209;BME280;24929;51.982;4.664;2023-04-12T14:57:08;75412.09;;;-143.36;37.06
39209;BME280;24929;51.982;4.664;2023-04-12T14:59:33;75394.06;;;-143.36;35.65
39209;BME280;24929;51.982;4.664;2023-04-12T15:01:58;75450.22;;;-143.36;35.24
39209;BME280;24929;51.982;4.664;2023-04-12T15:04:24;75484.31;;;-143.36;36.12
39209;BME280;24929;51.982;4.664;2023-04-12T15:06:50;75534.47;;;-143.36;36.09
39209;BME280;24929;51.982;4.664;2023-04-12T15:09:16;75488.34;;;-143.36;36.15
39209;BME280;24929;51.982;4.664;2023-04-12T15:11:48;75492.34;;;-143.36;35.48
39209;BME280;24929;51.982;4.664;2023-04-12T15:14:13;75554.53;;;-143.36;35.89
39209;BME280;24929;51.982;4.664;2023-04-12T15:16:45;75536.50;;;-143.36;35.55
39209;BME280;24929;51.982;4.664;2023-04-12T15:19:11;75570.59;;;-143.36;35.27
39209;BME280;24929;51.982;4.664;2023-04-12T15:21:37;75514.41;;;-143.36;35.99
39209;BME280;24929;51.982;4.664;2023-04-12T15:24:03;75516.44;;;-143.36;35.15
39209;BME280;24929;51.982;4.664;2023-04-12T15:26:28;75516.44;;;-143.36;35.84
39209;BME280;24929;51.982;4.664;2023-04-12T15:28:54;75500.38;;;-143.36;36.26
39209;BME280;24929;51.982;4.664;2023-04-12T15:31:19;75500.38;;;-143.36;36.16
39209;BME280;24929;51.982;4.664;2023-04-12T15:33:45;75468.28;;;-143.36;35.61
39209;BME280;24929;51.982;4.664;2023-04-12T15:36:11;75456.25;;;-143.36;36.34
39209;BME280;24929;51.982;4.664;2023-04-12T15:38:41;75484.31;;;-143.36;36.47
39209;BME280;24929;51.982;4.664;2023-04-12T15:41:06;75536.50;;;-143.36;36.10
39209;BME280;24929;51.982;4.664;2023-04-12T15:43:32;75592.66;;;-143.36;35.66
39209;BME280;24929;51.982;4.664;2023-04-12T15:45:57;75590.66;;;-143.36;35.66
39209;BME280;24929;51.982;4.664;2023-04-12T15:48:24;75542.50;;;-143.36;36.03
39209;BME280;24929;51.982;4.664;2023-04-12T15:50:50;75516.44;;;-143.36;35.79
39209;BME280;24929;51.982;4.664;2023-04-12T15:53:23;75478.31;;;-143.36;35.63
39209;BME280;24929;51.982;4.664;2023-04-12T15:55:49;75436.19;;;-143.36;35.02
39209;BME280;24929;51.982;4.664;2023-04-12T15:58:22;75492.34;;;-143.36;35.32
39209;BME280;24929;51.982;4.664;2023-04-12T16:00:48;75498.38;;;-143.36;35.00
39209;BME280;24929;51.982;4.664;2023-04-12T16:03:15;75562.56;;;-143.36;35.10
39209;BME280;24929;51.982;4.664;2023-04-12T16:05:49;75616.75;;;-143.36;35.52
39209;BME280;24929;51.982;4.664;2023-04-12T16:08:19;75588.66;;;-143.36;35.86
39209;BME280;24929;51.982;4.664;2023-04-12T16:10:44;75604.69;;;-143.36;36.53
39209;BME280;24929;51.982;4.664;2023-04-12T16:13:10;75674.91;;;-143.36;40.64
39209;BME280;24929;51.982;4.664;2023-04-12T16:15:36;75739.13;;;-143.36;40.86
39209;BME280;24929;51.982;4.664;2023-04-12T16:18:02;75692.97;;;-143.36;41.85
39209;BME280;24929;51.982;4.664;2023-04-12T16:20:27;75640.81;;;-143.36;41.84
39209;BME280;24929;51.982;4.664;2023-04-12T16:22:53;75582.63;;;-143.36;41.57
39209;BME280;24929;51.982;4.664;2023-04-12T16:25:19;75576.63;;;-143.36;41.08
39209;BME280;24929;51.982;4.664;2023-04-12T16:27:44;75584.63;;;-143.36;41.14
39209;BME280;24929;51.982;4.664;2023-04-12T16:30:10;75616.75;;;-143.36;41.25
39209;BME280;24929;51.982;4.664;2023-04-12T16:32:43;75618.75;;;-143.36;41.35
39209;BME280;24929;51.982;4.664;2023-04-12T16:35:08;75618.75;;;-143.36;40.99
39209;BME280;24929;51.982;4.664;2023-04-12T16:37:36;75632.78;;;-143.36;39.76
39209;BME280;24929;51.982;4.664;2023-04-12T16:40:02;75674.91;;;-143.36;39.97
39209;BME280;24929;51.982;4.664;2023-04-12T16:42:31;75711.03;;;-143.36;39.46
39209;BME280;24929;51.982;4.664;2023-04-12T16:44:56;75694.97;;;-143.36;39.95
39209;BME280;24929;51.982;4.664;2023-04-12T16:47:21;75690.97;;;-143.36;39.37
39209;BME280;24929;51.982;4.664;2023-04-12T16:49:47;75694.97;;;-143.36;39.61
39209;BME280;24929;51.982;4.664;2023-04-12T16:52:12;75723.06;;;-143.36;39.56
39209;BME280;24929;51.982;4.664;2023-04-12T16:54:37;75717.06;;;-143.36;38.84
39209;BME280;24929;51.982;4.664;2023-04-12T16:57:03;75735.09;;;-143.36;38.49
39209;BME280;24929;51.982;4.664;2023-04-12T16:59:30;75737.13;;;-143.36;38.58
39209;BME280;24929;51.982;4.664;2023-04-12T17:01:56;75747.16;;;-143.36;38.85
39209;BME280;24929;51.982;4.664;2023-04-12T17:04:24;75749.16;;;-143.36;36.94
39209;BME280;24929;51.982;4.664;2023-04-12T17:06:50;75797.31;;;-143.36;37.01
39209;BME280;24929;51.982;4.664;2023-04-12T17:09:16;75795.31;;;-143.36;37.64
39209;BME280;24929;51.982;4.664;2023-04-12T17:11:41;75797.31;;;-143.36;37.76
39209;BME280;24929;51.982;4.664;2023-04-12T17:14:07;75807.34;;;-143.36;37.26
39209;BME280;24929;51.982;4.664;2023-04-12T17:16:32;75821.38;;;-143.36;37.58
39209;BME280;24929;51.982;4.664;2023-04-12T17:18:57;75801.31;;;-143.36;37.41
39209;BME280;24929;51.982;4.664;2023-04-12T17:21:23;75803.31;;;-143.36;37.64
39209;BME280;24929;51.982;4.664;2023-04-12T17:23:48;75779.25;;;-143.36;37.84
39209;BME280;24929;51.982;4.664;2023-04-12T17:26:14;75787.28;;;-143.36;38.10
39209;BME280;24929;51.982;4.664;2023-04-12T17:28:42;75771.22;;;-143.36;37.57
39209;BME280;24929;51.982;4.664;2023-04-12T17:31:08;75787.28;;;-143.36;37.95
39209;BME280;24929;51.982;4.664;2023-04-12T17:33:33;75787.28;;;-143.36;38.38
39209;BME280;24929;51.982;4.664;2023-04-12T17:36:01;75785.28;;;-143.36;38.38
39209;BME280;24929;51.982;4.664;2023-04-12T17:38:26;75791.28;;;-143.36;38.40
39209;BME280;24929;51.982;4.664;2023-04-12T17:40:51;75801.31;;;-143.36;39.05
39209;BME280;24929;51.982;4.664;2023-04-12T17:43:17;75823.38;;;-143.36;38.17
39209;BME280;24929;51.982;4.664;2023-04-12T17:45:42;75847.47;;;-143.36;38.08
39209;BME280;24929;51.982;4.664;2023-04-12T17:48:07;75839.44;;;-143.36;38.74
39209;BME280;24929;51.982;4.664;2023-04-12T17:50:38;75839.44;;;-143.36;37.50